createdAt,value
2019-05-02T00:07:08.991Z,19.60
2019-05-02T00:15:27.750Z,18.60
2019-05-02T00:17:44.905Z,21.40
2019-05-02T00:22:48.016Z,18.80
2019-05-02T00:25:15.930Z,16.40
2019-05-02T00:27:47.442Z,18.40
2019-05-02T00:36:09.474Z,14.20
2019-05-02T00:38:56.121Z,20.80
2019-05-02T00:41:23.872Z,19.40
2019-05-02T00:44:10.932Z,18.00
2019-05-02T00:46:58.373Z,13.20
2019-05-02T00:52:03.975Z,21.20
2019-05-02T00:54:31.749Z,15.40
2019-05-02T00:57:19.934Z,20.20
2019-05-02T00:59:47.498Z,18.40
2019-05-02T01:02:35.954Z,19.40
2019-05-02T01:07:56.014Z,15.00
2019-05-02T01:10:22.473Z,8.00
2019-05-02T01:12:51.213Z,18.80
2019-05-02T01:15:18.982Z,16.80
2019-05-02T01:17:46.741Z,17.80
2019-05-02T01:20:14.617Z,16.00
2019-05-02T01:25:38.793Z,17.60
2019-05-02T01:28:25.271Z,19.00
2019-05-02T01:31:13.242Z,18.20
2019-05-02T01:34:00.162Z,17.60
2019-05-02T01:36:46.899Z,18.20
2019-05-02T01:39:14.754Z,16.00
2019-05-02T01:46:53.965Z,19.00
2019-05-02T01:49:21.849Z,18.60
2019-05-02T01:52:09.364Z,13.00
2019-05-02T01:54:40.753Z,15.00
2019-05-02T01:57:08.638Z,19.40
2019-05-02T01:59:54.911Z,11.60
2019-05-02T02:02:22.674Z,15.80
2019-05-02T02:07:23.580Z,18.20
2019-05-02T02:09:51.271Z,15.20
2019-05-02T02:12:42.998Z,14.80
2019-05-02T02:17:53.718Z,6.00
2019-05-02T02:20:40.113Z,18.00
2019-05-02T02:23:26.578Z,13.40
2019-05-02T02:28:44.975Z,12.40
2019-05-02T02:31:12.790Z,20.20
2019-05-02T02:33:59.175Z,18.40
2019-05-02T02:39:00.089Z,16.20
2019-05-02T02:41:52.263Z,17.00
2019-05-02T02:47:11.835Z,19.00
2019-05-02T02:49:36.936Z,15.80
2019-05-02T02:52:06.683Z,15.20
2019-05-02T02:54:36.628Z,21.40
2019-05-02T02:57:03.385Z,19.60
2019-05-02T02:59:31.166Z,21.20
2019-05-02T03:02:17.633Z,19.40
2019-05-02T03:04:46.438Z,18.20
2019-05-02T03:07:24.117Z,21.80
2019-05-02T03:12:49.692Z,22.00
2019-05-02T03:15:36.084Z,19.00
2019-05-02T03:23:15.057Z,18.20
2019-05-02T03:26:08.106Z,15.00
2019-05-02T03:28:34.522Z,18.60
2019-05-02T03:31:25.223Z,18.60
2019-05-02T03:34:08.991Z,14.60
2019-05-02T03:36:37.298Z,18.00
2019-05-02T03:41:39.422Z,16.00
2019-05-02T03:44:11.830Z,19.20
2019-05-02T03:46:36.593Z,16.40
2019-05-02T03:57:03.058Z,21.20
2019-05-02T04:02:03.421Z,19.80
2019-05-02T04:04:54.121Z,20.60
2019-05-02T04:07:19.333Z,20.00
2019-05-02T04:10:05.774Z,19.20
2019-05-02T04:12:33.439Z,18.40
2019-05-02T04:20:55.069Z,20.60
2019-05-02T04:23:41.445Z,16.40
2019-05-02T04:26:12.753Z,17.20
2019-05-02T04:28:39.032Z,16.60
2019-05-02T04:31:31.452Z,16.00
2019-05-02T04:33:58.959Z,21.00
2019-05-02T04:36:46.539Z,15.40
2019-05-02T04:39:20.558Z,19.00
2019-05-02T04:42:05.536Z,19.00
2019-05-02T04:45:11.753Z,21.00
2019-05-02T04:47:21.814Z,20.60
2019-05-02T04:52:30.182Z,19.80
2019-05-02T04:55:26.138Z,16.80
2019-05-02T04:57:51.029Z,16.40
2019-05-02T05:00:38.978Z,14.20
2019-05-02T05:03:07.274Z,20.00
2019-05-02T05:05:59.388Z,18.40
2019-05-02T05:08:26.474Z,10.40
2019-05-02T05:11:14.015Z,21.40
2019-05-02T05:13:40.964Z,18.60
2019-05-02T05:19:14.124Z,12.60
2019-05-02T05:22:04.767Z,19.80
2019-05-02T05:27:27.398Z,18.00
2019-05-02T05:30:02.271Z,15.40
2019-05-02T05:32:24.214Z,18.00
2019-05-02T05:34:52.153Z,12.20
2019-05-02T05:37:19.932Z,14.40
2019-05-02T05:39:50.923Z,22.80
2019-05-02T05:42:37.786Z,16.80
2019-05-02T05:45:12.042Z,12.20
2019-05-02T05:47:34.856Z,21.40
2019-05-02T05:50:02.508Z,13.40
2019-05-02T05:52:32.938Z,12.40
2019-05-02T05:54:59.868Z,12.20
2019-05-02T05:57:27.980Z,20.60
2019-05-02T05:59:58.243Z,19.80
2019-05-02T06:02:25.334Z,23.00
2019-05-02T06:04:55.176Z,21.60
2019-05-02T06:07:22.375Z,15.00
2019-05-02T06:09:50.332Z,20.80
2019-05-02T06:12:18.064Z,15.40
2019-05-02T06:14:46.529Z,15.00
2019-05-02T06:17:17.507Z,16.00
2019-05-02T06:19:53.428Z,16.80
2019-05-02T06:22:24.329Z,20.80
2019-05-02T06:24:50.758Z,14.80
2019-05-02T06:27:20.688Z,9.60
2019-05-02T06:29:46.272Z,9.00
2019-05-02T06:32:18.763Z,19.00
2019-05-02T06:34:46.338Z,14.20
2019-05-02T06:37:15.634Z,12.40
2019-05-02T06:39:43.770Z,20.60
2019-05-02T06:42:11.489Z,18.80
2019-05-02T06:44:41.178Z,19.60
2019-05-02T06:47:08.932Z,18.20
2019-05-02T06:49:36.707Z,18.00
2019-05-02T06:52:04.665Z,22.80
2019-05-02T06:54:32.333Z,21.60
2019-05-02T06:57:01.434Z,15.80
2019-05-02T06:59:29.418Z,18.60
2019-05-02T07:02:00.087Z,20.40
2019-05-02T07:04:27.834Z,18.60
2019-05-02T07:06:59.759Z,12.80
2019-05-02T07:09:40.024Z,21.00
2019-05-02T07:12:01.644Z,16.80
2019-05-02T07:14:29.818Z,12.60
2019-05-02T07:17:26.635Z,16.60
2019-05-02T07:19:58.840Z,17.20
2019-05-02T07:22:27.295Z,18.20
2019-05-02T07:24:55.176Z,19.80
2019-05-02T07:27:42.346Z,18.00
2019-05-02T07:30:10.174Z,13.40
2019-05-02T07:32:38.183Z,18.20
2019-05-02T07:35:05.811Z,19.20
2019-05-02T07:37:34.738Z,14.20
2019-05-02T07:40:04.985Z,21.40
2019-05-02T07:42:36.829Z,16.80
2019-05-02T07:45:09.379Z,17.60
2019-05-02T07:47:34.598Z,13.40
2019-05-02T07:50:05.320Z,22.20
2019-05-02T07:52:33.667Z,18.40
2019-05-02T07:55:04.858Z,18.20
2019-05-02T07:57:32.468Z,19.80
2019-05-02T08:00:02.486Z,17.60
2019-05-02T08:02:30.609Z,17.20
2019-05-02T08:05:02.906Z,16.40
2019-05-02T08:07:34.225Z,19.80
2019-05-02T08:10:00.138Z,16.40
2019-05-02T08:12:27.898Z,20.60
2019-05-02T08:14:55.869Z,13.00
2019-05-02T08:17:23.489Z,13.00
2019-05-02T08:19:51.135Z,17.40
2019-05-02T08:22:21.863Z,14.80
2019-05-02T08:24:49.553Z,16.60
2019-05-02T08:27:37.778Z,11.40
2019-05-02T08:30:06.007Z,15.20
2019-05-02T08:32:36.837Z,17.20
2019-05-02T08:35:04.565Z,22.60
2019-05-02T08:37:35.280Z,18.60
2019-05-02T08:40:05.418Z,18.60
2019-05-02T08:42:32.627Z,21.60
2019-05-02T08:45:01.516Z,23.60
2019-05-02T08:47:30.602Z,23.60
2019-05-02T08:49:58.298Z,17.00
2019-05-02T08:52:26.308Z,10.80
2019-05-02T08:54:53.920Z,18.00
2019-05-02T08:57:23.795Z,20.60
2019-05-02T08:59:55.503Z,13.40
2019-05-02T09:02:21.084Z,15.80
2019-05-02T09:04:58.333Z,22.60
2019-05-02T09:07:19.737Z,22.80
2019-05-02T09:09:47.520Z,14.20
2019-05-02T09:12:15.362Z,22.20
2019-05-02T09:14:46.114Z,24.60
2019-05-02T09:17:31.824Z,25.60
2019-05-02T09:20:00.300Z,17.60
2019-05-02T09:22:22.043Z,18.20
2019-05-02T09:24:49.452Z,23.80
2019-05-02T09:27:17.147Z,23.00
2019-05-02T09:29:46.011Z,19.80
2019-05-02T09:32:17.185Z,15.80
2019-05-02T09:34:43.077Z,16.00
2019-05-02T09:37:12.202Z,26.20
2019-05-02T09:39:41.531Z,18.60
2019-05-02T09:42:12.350Z,20.60
2019-05-02T09:44:43.555Z,15.40
2019-05-02T09:47:27.291Z,14.40
2019-05-02T09:50:09.587Z,16.80
2019-05-02T09:52:39.753Z,21.80
2019-05-02T09:55:08.103Z,13.80
2019-05-02T09:57:35.839Z,17.80
2019-05-02T10:00:03.613Z,19.00
2019-05-02T10:02:32.525Z,15.40
2019-05-02T10:05:01.804Z,24.80
2019-05-02T10:07:29.682Z,21.40
2019-05-02T10:10:03.150Z,22.00
2019-05-02T10:12:27.729Z,14.60
2019-05-02T10:14:55.494Z,15.20
2019-05-02T10:17:23.901Z,10.60
2019-05-02T10:19:57.036Z,18.60
2019-05-02T10:22:22.822Z,21.20
2019-05-02T10:24:53.707Z,26.20
2019-05-02T10:27:25.463Z,18.60
2019-05-02T10:29:53.179Z,26.60
2019-05-02T10:32:22.681Z,18.00
2019-05-02T10:34:56.751Z,18.40
2019-05-02T10:37:23.607Z,15.40
2019-05-02T10:39:52.536Z,20.00
2019-05-02T10:42:22.086Z,21.60
2019-05-02T10:44:52.042Z,18.40
2019-05-02T10:47:22.210Z,16.80
2019-05-02T10:49:54.328Z,17.80
2019-05-02T10:52:29.548Z,20.60
2019-05-02T10:54:52.826Z,16.40
2019-05-02T10:57:21.967Z,15.40
2019-05-02T10:59:50.075Z,22.60
2019-05-02T11:02:39.696Z,22.80
2019-05-02T11:05:16.801Z,22.00
2019-05-02T11:07:45.207Z,19.80
2019-05-02T11:10:15.351Z,21.00
2019-05-02T11:12:52.636Z,18.20
2019-05-02T11:15:38.803Z,23.40
2019-05-02T11:18:06.754Z,18.20
2019-05-02T11:20:34.496Z,17.20
2019-05-02T11:23:05.335Z,17.40
2019-05-02T11:25:33.309Z,25.00
2019-05-02T11:28:07.053Z,21.20
2019-05-02T11:30:32.377Z,23.80
2019-05-02T11:33:02.887Z,19.00
2019-05-02T11:35:34.234Z,20.00
2019-05-02T11:38:02.632Z,18.20
2019-05-02T11:40:32.170Z,20.20
2019-05-02T11:43:02.803Z,14.40
2019-05-02T11:45:32.467Z,15.20
2019-05-02T11:48:01.743Z,16.40
2019-05-02T11:50:33.886Z,20.40
2019-05-02T11:52:59.338Z,18.60
2019-05-02T11:55:28.960Z,15.00
2019-05-02T11:58:01.039Z,16.80
2019-05-02T12:00:25.955Z,16.60
2019-05-02T12:03:12.653Z,12.40
2019-05-02T12:05:43.497Z,19.80
2019-05-02T12:08:12.838Z,12.80
2019-05-02T12:10:43.005Z,11.60
2019-05-02T12:13:16.023Z,20.40
2019-05-02T12:15:44.074Z,16.80
2019-05-02T12:18:12.090Z,17.00
2019-05-02T12:20:42.508Z,14.20
2019-05-02T12:23:10.241Z,16.20
2019-05-02T12:25:56.640Z,13.60
2019-05-02T12:28:43.122Z,17.20
2019-05-02T12:36:54.917Z,19.80
2019-05-02T12:39:24.895Z,19.40
2019-05-02T12:42:05.170Z,14.60
2019-05-02T12:44:22.347Z,13.40
2019-05-02T12:49:44.507Z,16.40
2019-05-02T12:52:32.065Z,18.60
2019-05-02T12:55:13.229Z,16.00
2019-05-02T12:57:29.494Z,8.80
2019-05-02T12:59:57.251Z,12.40
2019-05-02T13:05:08.204Z,16.40
2019-05-02T13:07:36.214Z,15.40
2019-05-02T13:10:03.902Z,17.40
2019-05-02T13:12:34.369Z,14.60
2019-05-02T13:15:04.019Z,12.80
2019-05-02T13:17:35.679Z,18.80
2019-05-02T13:23:08.426Z,16.00
2019-05-02T13:25:37.046Z,16.60
2019-05-02T13:28:05.763Z,11.40
2019-05-02T13:30:54.707Z,20.60
2019-05-02T13:36:16.680Z,11.60
2019-05-02T13:39:03.142Z,15.40
2019-05-02T13:41:32.496Z,14.80
2019-05-02T13:44:02.140Z,18.40
2019-05-02T13:46:29.911Z,17.60
2019-05-02T13:48:57.538Z,19.00
2019-05-02T13:51:25.736Z,15.40
2019-05-02T13:54:12.659Z,19.00
2019-05-02T13:56:59.071Z,16.60
2019-05-02T13:59:26.765Z,16.60
2019-05-02T14:04:43.136Z,16.40
2019-05-02T14:07:29.537Z,9.20
2019-05-02T14:10:15.996Z,14.80
2019-05-02T14:12:48.880Z,15.60
2019-05-02T14:15:32.356Z,20.40
2019-05-02T14:17:48.183Z,7.80
2019-05-02T14:20:28.147Z,18.80
2019-05-02T14:23:04.390Z,21.60
2019-05-02T14:25:44.868Z,18.00
2019-05-02T14:28:36.125Z,18.60
2019-05-02T14:30:49.502Z,20.00
2019-05-02T14:33:48.565Z,18.20
2019-05-02T14:36:26.272Z,15.40
2019-05-02T14:39:12.646Z,18.20
2019-05-02T14:41:42.558Z,13.80
2019-05-02T14:44:11.886Z,23.00
2019-05-02T14:46:39.620Z,19.40
2019-05-02T14:49:07.362Z,20.60
2019-05-02T14:51:57.280Z,20.40
2019-05-02T14:54:43.819Z,19.00
2019-05-02T15:02:58.337Z,18.20
2019-05-02T15:08:02.598Z,24.80
2019-05-02T15:10:33.331Z,23.80
2019-05-02T15:12:59.749Z,19.00
2019-05-02T15:15:32.286Z,18.20
2019-05-02T15:20:53.903Z,25.00
2019-05-02T15:23:22.770Z,22.80
2019-05-02T15:25:54.398Z,13.00
2019-05-02T15:28:22.678Z,18.80
2019-05-02T15:31:08.551Z,21.80
2019-05-02T15:36:46.388Z,17.00
2019-05-02T15:41:53.775Z,18.40
2019-05-02T15:44:26.874Z,23.80
2019-05-02T15:55:03.892Z,23.60
2019-05-02T15:57:37.666Z,24.00
2019-05-02T16:00:23.001Z,28.80
2019-05-02T16:05:53.209Z,22.80
2019-05-02T16:08:21.530Z,27.20
2019-05-02T16:11:08.952Z,30.00
2019-05-02T16:13:36.667Z,27.00
2019-05-02T16:16:05.582Z,27.20
2019-05-02T16:18:40.201Z,28.80
2019-05-02T16:24:15.000Z,21.40
2019-05-02T16:26:46.780Z,22.40
2019-05-02T16:29:19.544Z,25.60
2019-05-02T16:32:03.610Z,24.60
2019-05-02T16:34:44.431Z,23.60
2019-05-02T16:37:20.195Z,24.40
2019-05-02T16:39:49.628Z,20.60
2019-05-02T16:42:35.981Z,23.20
2019-05-02T16:45:03.727Z,26.20
2019-05-02T16:47:58.710Z,22.80
2019-05-02T16:50:19.629Z,21.40
2019-05-02T16:53:05.994Z,21.80
2019-05-02T16:55:53.678Z,29.00
2019-05-02T17:03:57.784Z,29.40
2019-05-02T17:09:33.864Z,26.80
2019-05-02T17:12:06.522Z,28.60
2019-05-02T17:14:54.905Z,27.00
2019-05-02T17:20:19.001Z,33.00
2019-05-02T17:22:50.188Z,24.40
2019-05-02T17:25:46.638Z,26.00
2019-05-02T17:28:38.041Z,22.40
2019-05-02T17:30:52.646Z,13.40
2019-05-02T17:36:02.117Z,18.40
2019-05-02T17:38:48.922Z,12.40
2019-05-02T17:41:16.759Z,12.60
2019-05-02T17:43:44.585Z,14.40
2019-05-02T17:46:12.573Z,17.60
2019-05-02T17:48:42.875Z,15.40
2019-05-02T17:51:42.510Z,18.40
2019-05-02T17:54:22.800Z,14.40
2019-05-02T17:56:52.299Z,12.60
2019-05-02T18:07:36.138Z,17.20
2019-05-02T18:10:24.858Z,18.40
2019-05-02T18:13:12.025Z,18.00
2019-05-02T18:15:41.522Z,18.20
2019-05-02T18:18:27.600Z,17.20
2019-05-02T18:21:17.728Z,18.40
2019-05-02T18:24:05.942Z,10.00
2019-05-02T18:26:43.718Z,15.00
2019-05-02T18:29:06.490Z,15.00
2019-05-02T18:31:49.751Z,17.20
2019-05-02T18:34:36.110Z,9.40
2019-05-02T18:37:22.572Z,13.00
2019-05-02T18:40:09.033Z,13.40
2019-05-02T18:42:36.696Z,13.60
2019-05-02T18:45:04.449Z,15.80
2019-05-02T18:47:53.960Z,10.80
2019-05-02T18:50:22.341Z,12.00
2019-05-02T18:53:09.252Z,13.20
2019-05-02T18:55:48.588Z,6.20
2019-05-02T18:58:25.034Z,15.00
2019-05-02T19:00:52.732Z,15.40
2019-05-02T19:03:39.481Z,12.00
2019-05-02T19:06:39.087Z,10.00
2019-05-02T19:09:21.854Z,12.60
2019-05-02T19:11:46.666Z,12.20
2019-05-02T19:14:16.672Z,12.60
2019-05-02T19:17:05.449Z,14.60
2019-05-02T19:19:36.924Z,12.80
2019-05-02T19:22:47.940Z,12.40
2019-05-02T19:25:25.563Z,15.40
2019-05-02T19:28:00.043Z,14.00
2019-05-02T19:33:25.150Z,18.60
2019-05-02T19:35:54.684Z,19.00
2019-05-02T19:38:42.797Z,17.60
2019-05-02T19:41:11.696Z,6.60
2019-05-02T19:43:45.737Z,13.80
2019-05-02T19:46:12.126Z,11.40
2019-05-02T19:48:57.120Z,13.40
2019-05-02T19:51:20.333Z,18.80
2019-05-02T19:53:59.672Z,15.00
2019-05-02T19:56:23.357Z,12.20
2019-05-02T19:58:52.183Z,16.40
2019-05-02T20:03:56.792Z,10.00
2019-05-02T20:06:41.806Z,15.40
2019-05-02T20:12:42.415Z,16.40
2019-05-02T20:14:38.228Z,11.20
2019-05-02T20:17:24.083Z,15.40
2019-05-02T20:23:01.689Z,14.20
2019-05-02T20:28:04.539Z,18.40
2019-05-02T20:31:02.869Z,15.80
2019-05-02T20:33:39.020Z,21.20
2019-05-02T20:36:06.636Z,16.80
2019-05-02T20:38:36.915Z,13.40
2019-05-02T20:41:23.353Z,18.60
2019-05-02T20:44:02.524Z,17.20
2019-05-02T20:46:48.634Z,20.20
2019-05-02T20:52:41.740Z,9.20
2019-05-02T20:55:09.502Z,19.00
2019-05-02T21:00:42.724Z,20.80
2019-05-02T21:03:11.997Z,16.00
2019-05-02T21:11:28.591Z,21.00
2019-05-02T21:13:56.304Z,24.20
2019-05-02T21:16:24.126Z,18.40
2019-05-02T21:18:51.895Z,10.40
2019-05-02T21:21:21.826Z,11.20
2019-05-02T21:23:55.462Z,13.40
2019-05-02T21:26:23.074Z,9.40
2019-05-02T21:31:44.888Z,10.80
2019-05-02T21:42:11.049Z,6.40
2019-05-02T21:44:38.892Z,2.60
2019-05-02T21:47:09.418Z,3.40
2019-05-02T21:50:08.008Z,4.20
2019-05-02T21:55:45.686Z,7.00
2019-05-02T21:58:32.429Z,6.20
2019-05-02T22:01:22.163Z,6.20
2019-05-02T22:06:56.420Z,5.20
2019-05-02T22:09:29.157Z,3.40
2019-05-02T22:12:01.219Z,3.80
2019-05-02T22:14:28.895Z,4.00
2019-05-02T22:16:56.646Z,1.80
2019-05-02T22:19:26.931Z,3.60
2019-05-02T22:22:13.396Z,2.20
2019-05-02T22:24:59.827Z,3.00
2019-05-02T22:30:32.748Z,1.80
2019-05-02T22:33:02.664Z,2.60
2019-05-02T22:35:32.576Z,1.80
2019-05-02T22:38:19.041Z,3.00
2019-05-02T22:41:05.491Z,1.00
2019-05-02T22:46:26.126Z,3.60
2019-05-02T22:48:53.838Z,3.60
2019-05-02T22:51:40.219Z,4.00
2019-05-02T22:54:27.737Z,2.60
2019-05-02T22:56:37.666Z,1.00
2019-05-02T22:59:07.397Z,3.00
2019-05-02T23:01:35.287Z,4.40
2019-05-02T23:04:03.461Z,3.00
2019-05-02T23:06:50.094Z,5.60
2019-05-02T23:09:17.829Z,4.00
2019-05-02T23:11:46.116Z,3.00
2019-05-02T23:14:32.704Z,3.60
2019-05-02T23:17:19.163Z,4.00
2019-05-02T23:20:05.556Z,4.00
2019-05-02T23:22:33.285Z,3.00
2019-05-02T23:25:19.725Z,3.60
2019-05-02T23:30:43.854Z,2.60
2019-05-02T23:33:32.696Z,3.00
2019-05-02T23:36:01.981Z,3.80
2019-05-02T23:38:33.285Z,3.60
2019-05-02T23:41:02.087Z,2.20
2019-05-02T23:46:18.603Z,1.80
2019-05-02T23:48:46.364Z,3.00
2019-05-02T23:51:32.855Z,2.20
2019-05-02T23:54:19.255Z,3.00
2019-05-02T23:57:05.671Z,3.80
2019-05-02T23:59:33.324Z,3.40
